Time;durP1;ratioP1;P1;durP2;ratioP2;P2;SDS_P1;SDS_P2;PMS_P1;PMS_P2;Temp;Humidity;BMP_temperature;BMP_pressure;BME280_temperature;BME280_humidity;BME280_pressure;Samples;Min_cycle;Max_cycle;Signal;HPM_P1;HPM_P2
2023/06/19 00:04:32;;;;;;;11.27;6.60;;;;;;;;;;10489693;28;20082;-61
2023/06/19 00:09:33;;;;;;;8.48;6.90;;;;;;;;;;10487742;28;20037;-61
2023/06/19 00:14:35;;;;;;;7.07;5.70;;;;;;;;;;10489642;28;20484;-61
2023/06/19 00:19:36;;;;;;;9.80;6.28;;;;;;;;;;10489406;28;20041;-61
2023/06/19 00:24:36;;;;;;;8.70;6.40;;;;;;;;;;10489697;28;20028;-61
2023/06/19 00:29:37;;;;;;;8.05;6.57;;;;;;;;;;10489525;28;20050;-60
2023/06/19 00:34:38;;;;;;;13.05;6.68;;;;;;;;;;10495223;28;20051;-60
2023/06/19 00:39:40;;;;;;;12.13;6.30;;;;;;;;;;10496685;28;20032;-60
2023/06/19 00:44:41;;;;;;;10.50;6.57;;;;;;;;;;10496860;28;20115;-63
2023/06/19 00:49:42;;;;;;;12.80;6.72;;;;;;;;;;10496835;28;20039;-60
2023/06/19 00:54:43;;;;;;;10.52;6.40;;;;;;;;;;10496699;28;20032;-59
2023/06/19 00:59:43;;;;;;;10.65;6.80;;;;;;;;;;10496192;28;20074;-61
2023/06/19 01:04:44;;;;;;;8.70;6.13;;;;;;;;;;10496144;28;20021;-63
2023/06/19 01:09:52;;;;;;;8.55;6.10;;;;;;;;;;10495938;28;20496;-62
2023/06/19 01:14:58;;;;;;;7.57;6.35;;;;;;;;;;10495849;28;20358;-63
2023/06/19 01:19:59;;;;;;;9.57;6.85;;;;;;;;;;10495343;28;20168;-63
2023/06/19 01:25:00;;;;;;;7.88;6.63;;;;;;;;;;10493827;28;20046;-64
2023/06/19 01:30:03;;;;;;;8.27;7.28;;;;;;;;;;10494530;28;20043;-60
2023/06/19 01:35:07;;;;;;;7.55;5.75;;;;;;;;;;10482701;28;20032;-64
2023/06/19 01:40:10;;;;;;;7.45;6.05;;;;;;;;;;10477266;28;20059;-63
2023/06/19 01:45:11;;;;;;;7.07;5.75;;;;;;;;;;10493785;28;20062;-63
2023/06/19 01:50:12;;;;;;;7.03;6.20;;;;;;;;;;10492136;28;20964;-64
2023/06/19 01:55:13;;;;;;;8.60;6.63;;;;;;;;;;10493884;28;20028;-64
2023/06/19 02:00:14;;;;;;;9.00;6.05;;;;;;;;;;10494282;28;20432;-64
2023/06/19 02:05:15;;;;;;;7.28;6.38;;;;;;;;;;10494225;28;20028;-64
2023/06/19 02:10:16;;;;;;;11.55;6.32;;;;;;;;;;10491830;28;20033;-64
2023/06/19 02:15:16;;;;;;;7.22;6.18;;;;;;;;;;10493503;28;20032;-63
2023/06/19 02:20:17;;;;;;;6.60;5.95;;;;;;;;;;10493608;28;20448;-64
2023/06/19 02:25:18;;;;;;;6.90;6.18;;;;;;;;;;10493463;28;20017;-61
2023/06/19 02:30:19;;;;;;;11.70;6.38;;;;;;;;;;10492475;28;20506;-61
2023/06/19 02:35:20;;;;;;;7.25;6.05;;;;;;;;;;10492757;28;20035;-61
2023/06/19 02:40:21;;;;;;;9.35;6.20;;;;;;;;;;10493080;28;20021;-61
2023/06/19 02:45:21;;;;;;;7.55;6.75;;;;;;;;;;10492404;28;20070;-60
2023/06/19 02:50:22;;;;;;;10.95;6.32;;;;;;;;;;10492347;28;20043;-61
2023/06/19 02:55:23;;;;;;;10.90;6.68;;;;;;;;;;10490523;28;20040;-61
2023/06/19 03:00:23;;;;;;;9.82;6.68;;;;;;;;;;10491200;28;20047;-62
2023/06/19 03:05:26;;;;;;;8.68;6.70;;;;;;;;;;10492020;28;20020;-61
2023/06/19 03:10:27;;;;;;;8.32;6.13;;;;;;;;;;10491259;28;20032;-61
2023/06/19 03:15:28;;;;;;;7.20;5.93;;;;;;;;;;10490972;28;20088;-60
2023/06/19 03:20:28;;;;;;;6.78;5.93;;;;;;;;;;10490269;28;20024;-61
2023/06/19 03:25:34;;;;;;;10.07;6.82;;;;;;;;;;10490662;28;20040;-60
2023/06/19 03:30:35;;;;;;;9.15;6.78;;;;;;;;;;10489790;28;20076;-60
2023/06/19 03:35:35;;;;;;;10.27;6.50;;;;;;;;;;10490674;28;20036;-60
2023/06/19 03:40:36;;;;;;;8.40;6.43;;;;;;;;;;10490450;28;20040;-60
2023/06/19 03:45:37;;;;;;;9.15;6.93;;;;;;;;;;10490649;28;20095;-60
2023/06/19 03:50:37;;;;;;;10.45;6.80;;;;;;;;;;10490140;28;20081;-60
2023/06/19 03:55:38;;;;;;;14.45;6.50;;;;;;;;;;10490047;28;20029;-60
2023/06/19 04:00:39;;;;;;;9.98;7.60;;;;;;;;;;10489712;28;20028;-61
2023/06/19 04:05:41;;;;;;;9.30;7.50;;;;;;;;;;10489296;28;20057;-60
2023/06/19 04:10:42;;;;;;;9.90;7.28;;;;;;;;;;10490000;28;20175;-61
2023/06/19 04:15:44;;;;;;;13.90;7.40;;;;;;;;;;10488953;28;20148;-59
2023/06/19 04:20:44;;;;;;;12.77;7.00;;;;;;;;;;10488972;28;20115;-60
2023/06/19 04:25:45;;;;;;;11.57;6.55;;;;;;;;;;10489583;28;20490;-61
2023/06/19 04:30:46;;;;;;;8.10;5.70;;;;;;;;;;10489663;28;20044;-59
2023/06/19 04:35:48;;;;;;;8.23;5.43;;;;;;;;;;10487373;28;20041;-59
2023/06/19 04:40:50;;;;;;;6.25;4.80;;;;;;;;;;10487139;28;20024;-60
2023/06/19 04:45:50;;;;;;;5.40;4.50;;;;;;;;;;10489054;28;20107;-60
2023/06/19 04:50:52;;;;;;;5.35;4.30;;;;;;;;;;10489301;28;20028;-61
2023/06/19 04:55:54;;;;;;;5.78;4.70;;;;;;;;;;10487517;28;20025;-61
2023/06/19 05:00:55;;;;;;;8.80;5.40;;;;;;;;;;10475513;28;20097;-59
2023/06/19 05:05:55;;;;;;;9.02;5.47;;;;;;;;;;10487622;28;20070;-65
2023/06/19 05:10:57;;;;;;;6.88;4.95;;;;;;;;;;10474280;28;20021;-64
2023/06/19 05:15:58;;;;;;;11.13;4.97;;;;;;;;;;10486202;28;20364;-65
2023/06/19 05:20:58;;;;;;;9.90;4.32;;;;;;;;;;10490960;28;20032;-64
2023/06/19 05:25:59;;;;;;;13.30;5.13;;;;;;;;;;10495448;28;20111;-65
2023/06/19 05:30:59;;;;;;;5.70;4.93;;;;;;;;;;10495146;28;20040;-63
2023/06/19 05:36:01;;;;;;;9.55;4.88;;;;;;;;;;10495643;28;20021;-61
2023/06/19 05:41:03;;;;;;;6.85;4.80;;;;;;;;;;10494811;28;20024;-61
2023/06/19 05:46:03;;;;;;;15.60;6.03;;;;;;;;;;10490131;28;20068;-64
2023/06/19 05:51:05;;;;;;;18.98;6.05;;;;;;;;;;10489749;28;20040;-65
2023/06/19 05:56:06;;;;;;;22.38;6.00;;;;;;;;;;10483893;28;20040;-64
2023/06/19 06:01:07;;;;;;;17.85;6.43;;;;;;;;;;10491318;28;20024;-62
2023/06/19 06:06:08;;;;;;;16.60;6.35;;;;;;;;;;10487817;28;20036;-63
2023/06/19 06:11:08;;;;;;;22.67;6.25;;;;;;;;;;10490033;28;20025;-61
2023/06/19 06:16:09;;;;;;;12.52;5.75;;;;;;;;;;10489706;28;20036;-60
2023/06/19 06:21:12;;;;;;;17.48;6.00;;;;;;;;;;10493434;28;20029;-59
2023/06/19 06:26:14;;;;;;;21.25;6.38;;;;;;;;;;10494109;28;20078;-58
2023/06/19 06:31:15;;;;;;;17.25;6.22;;;;;;;;;;10492034;28;20044;-58
2023/06/19 06:36:15;;;;;;;21.52;7.00;;;;;;;;;;10493264;28;20036;-58
2023/06/19 06:41:16;;;;;;;16.83;6.30;;;;;;;;;;10493176;28;20036;-58
2023/06/19 06:46:16;;;;;;;12.00;6.55;;;;;;;;;;10492495;28;20472;-58
2023/06/19 06:51:17;;;;;;;15.32;6.20;;;;;;;;;;10493097;28;20020;-58
2023/06/19 06:56:18;;;;;;;21.67;6.75;;;;;;;;;;10492772;28;20024;-59
2023/06/19 07:01:18;;;;;;;13.55;5.80;;;;;;;;;;10491928;28;20032;-58
2023/06/19 07:06:19;;;;;;;14.43;6.55;;;;;;;;;;10490723;28;20418;-58
2023/06/19 07:11:19;;;;;;;16.73;6.45;;;;;;;;;;10490673;28;20108;-58
2023/06/19 07:16:21;;;;;;;15.65;6.28;;;;;;;;;;10490771;28;20020;-58
2023/06/19 07:21:21;;;;;;;16.63;6.50;;;;;;;;;;10490365;28;20036;-58
2023/06/19 07:26:23;;;;;;;10.90;6.53;;;;;;;;;;10490307;28;20032;-59
2023/06/19 07:31:24;;;;;;;13.13;6.25;;;;;;;;;;10490604;28;20052;-58
2023/06/19 07:36:24;;;;;;;12.90;6.43;;;;;;;;;;10489998;28;20028;-59
2023/06/19 07:41:25;;;;;;;17.05;6.03;;;;;;;;;;10490089;28;20407;-59
2023/06/19 07:46:26;;;;;;;11.88;6.18;;;;;;;;;;10490236;28;20408;-58
2023/06/19 07:51:26;;;;;;;10.63;5.63;;;;;;;;;;10490008;28;20626;-62
2023/06/19 07:56:27;;;;;;;12.60;6.60;;;;;;;;;;10490048;28;20043;-63
2023/06/19 08:01:27;;;;;;;12.05;6.40;;;;;;;;;;10490290;28;20029;-63
2023/06/19 08:06:28;;;;;;;12.18;6.30;;;;;;;;;;10489933;28;20035;-63
2023/06/19 08:11:29;;;;;;;12.55;6.28;;;;;;;;;;10489570;28;20036;-58
2023/06/19 08:16:29;;;;;;;13.82;6.00;;;;;;;;;;10489372;28;20028;-58
2023/06/19 08:21:30;;;;;;;12.82;7.20;;;;;;;;;;10488949;28;20025;-58
2023/06/19 08:26:30;;;;;;;12.80;6.82;;;;;;;;;;10488887;28;20031;-59
2023/06/19 08:31:31;;;;;;;14.10;6.15;;;;;;;;;;10488389;28;20045;-58
2023/06/19 08:36:33;;;;;;;13.80;6.85;;;;;;;;;;10489653;28;20043;-59
2023/06/19 08:41:37;;;;;;;12.43;6.15;;;;;;;;;;10489097;28;20036;-59
2023/06/19 08:46:40;;;;;;;16.83;6.60;;;;;;;;;;10488799;28;20043;-59
2023/06/19 08:51:40;;;;;;;10.55;5.88;;;;;;;;;;10488297;28;20019;-59
2023/06/19 08:56:41;;;;;;;11.18;6.78;;;;;;;;;;10496563;28;20509;-58
2023/06/19 09:01:53;;;;;;;7.72;5.28;;;;;;;;;;10496547;28;20047;-60
2023/06/19 09:07:04;;;;;;;15.73;6.55;;;;;;;;;;10496342;28;20480;-58
2023/06/19 09:12:08;;;;;;;11.57;5.88;;;;;;;;;;10495926;28;20025;-59
2023/06/19 09:17:20;;;;;;;10.32;6.35;;;;;;;;;;10495725;28;20062;-62
2023/06/19 09:22:22;;;;;;;11.23;6.72;;;;;;;;;;10495449;28;20384;-62
2023/06/19 09:27:23;;;;;;;10.13;6.78;;;;;;;;;;10495661;28;20028;-59
2023/06/19 09:32:28;;;;;;;12.65;6.53;;;;;;;;;;10494915;28;20493;-58
2023/06/19 09:37:30;;;;;;;10.65;6.90;;;;;;;;;;10495175;28;20017;-59
2023/06/19 09:42:34;;;;;;;10.95;6.97;;;;;;;;;;10495142;28;20036;-59
2023/06/19 09:47:43;;;;;;;10.50;6.93;;;;;;;;;;10494359;28;20025;-58
2023/06/19 09:52:44;;;;;;;10.05;6.30;;;;;;;;;;10493061;28;20024;-58
2023/06/19 09:57:45;;;;;;;9.63;6.88;;;;;;;;;;10495259;28;20026;-58
2023/06/19 10:02:46;;;;;;;13.73;6.55;;;;;;;;;;10494525;28;20116;-58
2023/06/19 10:07:47;;;;;;;10.75;6.97;;;;;;;;;;10493496;28;20061;-58
2023/06/19 10:12:48;;;;;;;11.02;6.90;;;;;;;;;;10493275;28;20165;-58
2023/06/19 10:17:53;;;;;;;10.48;6.88;;;;;;;;;;10493330;28;20024;-58
2023/06/19 10:22:57;;;;;;;10.48;6.70;;;;;;;;;;10492179;28;20039;-58
2023/06/19 10:27:59;;;;;;;9.18;7.32;;;;;;;;;;10493107;28;20028;-58
2023/06/19 10:33:02;;;;;;;12.00;6.25;;;;;;;;;;10492696;28;20037;-59
2023/06/19 10:38:03;;;;;;;8.55;6.97;;;;;;;;;;10492942;28;20024;-58
2023/06/19 10:43:04;;;;;;;9.85;7.07;;;;;;;;;;10492961;28;20380;-58
2023/06/19 10:48:05;;;;;;;9.55;6.53;;;;;;;;;;10491801;28;20353;-58
2023/06/19 10:53:06;;;;;;;9.90;6.68;;;;;;;;;;10491910;28;20031;-58
2023/06/19 10:58:07;;;;;;;9.18;6.60;;;;;;;;;;10491743;28;20124;-58
2023/06/19 11:03:07;;;;;;;12.20;6.43;;;;;;;;;;10492397;28;20066;-57
2023/06/19 11:08:08;;;;;;;8.32;6.40;;;;;;;;;;10491577;28;20476;-58
2023/06/19 11:13:15;;;;;;;8.75;6.40;;;;;;;;;;10490885;28;20032;-58
2023/06/19 11:18:18;;;;;;;9.60;6.37;;;;;;;;;;10490929;28;20031;-58
2023/06/19 11:23:30;;;;;;;8.15;6.57;;;;;;;;;;10491234;28;20029;-61
2023/06/19 11:28:31;;;;;;;8.00;6.28;;;;;;;;;;10490666;28;20541;-61
2023/06/19 11:33:33;;;;;;;9.32;7.10;;;;;;;;;;10490620;28;20040;-62
2023/06/19 11:38:36;;;;;;;7.07;6.40;;;;;;;;;;10489582;28;20016;-62
2023/06/19 11:43:36;;;;;;;7.88;6.82;;;;;;;;;;10490094;28;20035;-60
2023/06/19 11:48:38;;;;;;;11.77;7.05;;;;;;;;;;10483717;28;20449;-63
2023/06/19 11:53:39;;;;;;;14.15;7.05;;;;;;;;;;10490539;28;20027;-62
2023/06/19 11:58:40;;;;;;;9.32;7.13;;;;;;;;;;10489472;28;20028;-62
2023/06/19 12:03:40;;;;;;;9.95;6.30;;;;;;;;;;10490489;28;20020;-59
2023/06/19 12:08:41;;;;;;;10.30;7.13;;;;;;;;;;10489977;28;20028;-63
2023/06/19 12:13:42;;;;;;;11.05;6.32;;;;;;;;;;10489416;28;20074;-63
2023/06/19 12:18:42;;;;;;;13.00;6.97;;;;;;;;;;10489020;28;20024;-59
2023/06/19 12:23:43;;;;;;;9.07;6.95;;;;;;;;;;10488770;28;20029;-63
2023/06/19 12:28:43;;;;;;;12.85;6.60;;;;;;;;;;10492524;28;20492;-59
2023/06/19 12:33:44;;;;;;;13.05;7.30;;;;;;;;;;10494437;28;20468;-59
2023/06/19 12:38:46;;;;;;;6.97;6.28;;;;;;;;;;10497038;28;20381;-58
2023/06/19 12:43:47;;;;;;;12.60;7.30;;;;;;;;;;10496104;28;20029;-59
2023/06/19 12:48:50;;;;;;;10.02;6.20;;;;;;;;;;10496699;28;20081;-59
2023/06/19 12:53:50;;;;;;;11.13;7.35;;;;;;;;;;10477366;28;20116;-59
2023/06/19 12:58:52;;;;;;;7.97;6.82;;;;;;;;;;10476806;28;20025;-58
2023/06/19 13:03:52;;;;;;;7.97;6.65;;;;;;;;;;10462989;28;20021;-67
2023/06/19 13:08:53;;;;;;;8.55;6.40;;;;;;;;;;10492561;28;20032;-60
2023/06/19 13:13:54;;;;;;;19.05;6.97;;;;;;;;;;10487731;28;20044;-60
2023/06/19 13:18:54;;;;;;;11.30;7.70;;;;;;;;;;10486760;28;20021;-60
2023/06/19 13:23:55;;;;;;;12.68;7.28;;;;;;;;;;10495763;28;20039;-62
2023/06/19 13:28:58;;;;;;;10.93;7.00;;;;;;;;;;10495874;28;20040;-58
2023/06/19 13:33:59;;;;;;;8.48;6.47;;;;;;;;;;10489152;28;20049;-60
2023/06/19 13:38:59;;;;;;;8.95;6.90;;;;;;;;;;10494459;28;20024;-60
2023/06/19 13:44:00;;;;;;;11.48;6.60;;;;;;;;;;10496024;28;20086;-59
2023/06/19 13:49:01;;;;;;;13.07;6.95;;;;;;;;;;10495141;28;20424;-62
2023/06/19 13:54:04;;;;;;;9.50;6.93;;;;;;;;;;10494490;28;20020;-61
2023/06/19 13:59:05;;;;;;;7.53;6.57;;;;;;;;;;10487398;28;20029;-61
2023/06/19 14:04:05;;;;;;;9.25;6.38;;;;;;;;;;10489833;28;20047;-59
2023/06/19 14:09:06;;;;;;;10.85;6.95;;;;;;;;;;10473418;28;20043;-59
2023/06/19 14:14:07;;;;;;;11.70;7.28;;;;;;;;;;10493200;28;20024;-60
2023/06/19 14:19:08;;;;;;;10.02;6.88;;;;;;;;;;10486115;28;20029;-60
2023/06/19 14:24:08;;;;;;;10.50;6.68;;;;;;;;;;10493729;28;20024;-59
2023/06/19 14:29:09;;;;;;;9.40;6.60;;;;;;;;;;10492896;28;20028;-60
2023/06/19 14:34:09;;;;;;;8.57;6.07;;;;;;;;;;10483514;28;20484;-59
2023/06/19 14:39:11;;;;;;;8.15;6.88;;;;;;;;;;10478641;28;20488;-60
2023/06/19 14:44:12;;;;;;;10.07;7.30;;;;;;;;;;10492937;28;20032;-59
2023/06/19 14:49:12;;;;;;;15.00;7.38;;;;;;;;;;10482587;28;20070;-59
2023/06/19 14:54:15;;;;;;;13.05;7.55;;;;;;;;;;10491735;28;20028;-59
2023/06/19 14:59:16;;;;;;;12.93;7.57;;;;;;;;;;10492245;28;20043;-59
2023/06/19 15:04:16;;;;;;;16.75;7.22;;;;;;;;;;10492047;28;20039;-59
2023/06/19 15:09:17;;;;;;;14.23;7.03;;;;;;;;;;10491716;28;20035;-59
2023/06/19 15:14:19;;;;;;;11.02;6.60;;;;;;;;;;10491646;28;20438;-59
2023/06/19 15:19:20;;;;;;;9.68;6.75;;;;;;;;;;10480370;28;20116;-59
2023/06/19 15:24:20;;;;;;;11.45;6.82;;;;;;;;;;10491555;28;20016;-58
2023/06/19 15:29:21;;;;;;;12.93;6.90;;;;;;;;;;10491287;28;20029;-58
2023/06/19 15:34:21;;;;;;;6.38;5.75;;;;;;;;;;10491149;28;20496;-58
2023/06/19 15:39:23;;;;;;;8.82;6.68;;;;;;;;;;10491335;28;20386;-59
2023/06/19 15:44:24;;;;;;;7.72;6.30;;;;;;;;;;10490718;28;20028;-59
2023/06/19 15:49:24;;;;;;;7.10;6.30;;;;;;;;;;10490336;28;20055;-61
2023/06/19 15:54:25;;;;;;;6.82;6.13;;;;;;;;;;10489569;28;20046;-62
2023/06/19 15:59:25;;;;;;;14.20;6.18;;;;;;;;;;10490518;28;20055;-61
2023/06/19 16:04:26;;;;;;;13.88;6.80;;;;;;;;;;10469229;28;20032;-62
2023/06/19 16:09:27;;;;;;;8.48;6.30;;;;;;;;;;10485737;28;20151;-61
2023/06/19 16:14:27;;;;;;;6.85;6.00;;;;;;;;;;10489247;28;20028;-60
2023/06/19 16:19:28;;;;;;;6.85;6.15;;;;;;;;;;10489625;28;20033;-60
2023/06/19 16:24:28;;;;;;;11.75;5.90;;;;;;;;;;10489999;28;20040;-61
2023/06/19 16:29:29;;;;;;;10.55;6.05;;;;;;;;;;10489452;28;20492;-60
2023/06/19 16:34:29;;;;;;;6.63;5.50;;;;;;;;;;10489603;28;20512;-60
2023/06/19 16:39:30;;;;;;;8.00;6.22;;;;;;;;;;10489818;28;20480;-61
2023/06/19 16:44:31;;;;;;;6.80;6.20;;;;;;;;;;10489260;28;20541;-61
2023/06/19 16:49:31;;;;;;;9.32;6.30;;;;;;;;;;10489395;28;20533;-60
2023/06/19 16:54:32;;;;;;;6.63;5.28;;;;;;;;;;10489063;28;20048;-61
2023/06/19 16:59:32;;;;;;;7.43;5.82;;;;;;;;;;10489258;28;20028;-61
2023/06/19 17:04:33;;;;;;;7.63;5.75;;;;;;;;;;10488631;28;20032;-61
2023/06/19 17:09:33;;;;;;;9.40;5.30;;;;;;;;;;10488189;28;20032;-60
2023/06/19 17:14:34;;;;;;;7.93;5.63;;;;;;;;;;10491640;28;20028;-60
2023/06/19 17:19:34;;;;;;;7.18;6.03;;;;;;;;;;10496056;28;20024;-61
2023/06/19 17:24:35;;;;;;;6.05;5.45;;;;;;;;;;10488433;28;20036;-61
2023/06/19 17:29:36;;;;;;;5.85;5.28;;;;;;;;;;10490623;28;20183;-61
2023/06/19 17:34:36;;;;;;;6.45;5.50;;;;;;;;;;10496218;28;20048;-57
2023/06/19 17:39:37;;;;;;;6.10;5.50;;;;;;;;;;10495481;28;20016;-58
2023/06/19 17:44:37;;;;;;;7.20;6.13;;;;;;;;;;10495662;28;20039;-58
2023/06/19 17:49:38;;;;;;;8.55;5.50;;;;;;;;;;10495163;28;20360;-58
2023/06/19 17:54:39;;;;;;;7.50;5.70;;;;;;;;;;10495478;28;20016;-58
2023/06/19 17:59:40;;;;;;;5.93;5.30;;;;;;;;;;10495049;28;20028;-61
2023/06/19 18:04:40;;;;;;;5.63;5.10;;;;;;;;;;10494266;28;20028;-60
2023/06/19 18:09:46;;;;;;;8.57;6.22;;;;;;;;;;10481912;28;20036;-58
2023/06/19 18:14:46;;;;;;;6.80;5.53;;;;;;;;;;10494417;28;20119;-58
2023/06/19 18:19:47;;;;;;;11.20;6.15;;;;;;;;;;10493875;28;20514;-58
2023/06/19 18:24:48;;;;;;;7.90;6.75;;;;;;;;;;10493803;28;20033;-58
2023/06/19 18:29:48;;;;;;;11.55;6.55;;;;;;;;;;10493281;28;20141;-61
2023/06/19 18:34:49;;;;;;;17.90;6.57;;;;;;;;;;10462720;28;20037;-58
2023/06/19 18:39:51;;;;;;;10.25;6.75;;;;;;;;;;10478303;28;20028;-58
2023/06/19 18:44:52;;;;;;;12.90;6.85;;;;;;;;;;10492028;28;20032;-58
2023/06/19 18:49:53;;;;;;;13.35;7.03;;;;;;;;;;10492692;28;20385;-58
2023/06/19 18:54:54;;;;;;;10.55;7.25;;;;;;;;;;10492440;28;20024;-58
2023/06/19 18:59:57;;;;;;;10.82;7.75;;;;;;;;;;10491276;28;20028;-58
2023/06/19 19:04:59;;;;;;;13.32;6.13;;;;;;;;;;10491758;28;20400;-58
2023/06/19 19:10:00;;;;;;;13.25;7.38;;;;;;;;;;10479207;28;20548;-59
2023/06/19 19:15:00;;;;;;;14.52;6.55;;;;;;;;;;10491271;28;20091;-59
2023/06/19 19:20:03;;;;;;;10.90;6.30;;;;;;;;;;10490694;28;20036;-58
2023/06/19 19:25:04;;;;;;;10.15;6.88;;;;;;;;;;10490467;28;20039;-58
2023/06/19 19:30:06;;;;;;;8.55;6.22;;;;;;;;;;10490516;28;20044;-62
2023/06/19 19:35:07;;;;;;;7.70;6.57;;;;;;;;;;10490065;28;20021;-58
2023/06/19 19:40:08;;;;;;;9.63;6.57;;;;;;;;;;10489949;28;20099;-57
2023/06/19 19:45:10;;;;;;;9.45;6.82;;;;;;;;;;10490279;28;20016;-57
2023/06/19 19:50:13;;;;;;;10.35;7.03;;;;;;;;;;10489994;28;20035;-58
2023/06/19 19:55:14;;;;;;;13.57;7.45;;;;;;;;;;10489391;28;20099;-57
2023/06/19 20:00:15;;;;;;;11.30;7.18;;;;;;;;;;10489848;28;20033;-57
2023/06/19 20:05:15;;;;;;;10.13;7.18;;;;;;;;;;10489476;28;20534;-58
2023/06/19 20:10:16;;;;;;;8.30;6.78;;;;;;;;;;10489898;28;20086;-58
2023/06/19 20:15:17;;;;;;;7.32;6.15;;;;;;;;;;10490041;28;20484;-58
2023/06/19 20:20:17;;;;;;;7.28;6.57;;;;;;;;;;10489572;28;20039;-58
2023/06/19 20:25:19;;;;;;;8.27;6.28;;;;;;;;;;10489841;28;20472;-58
2023/06/19 20:30:19;;;;;;;8.25;6.70;;;;;;;;;;10489400;28;20437;-58
2023/06/19 20:35:20;;;;;;;9.93;6.93;;;;;;;;;;10490249;28;20028;-58
2023/06/19 20:40:21;;;;;;;7.72;6.28;;;;;;;;;;10489441;28;20074;-58
2023/06/19 20:45:24;;;;;;;8.25;6.70;;;;;;;;;;10488925;28;20020;-58
2023/06/19 20:50:24;;;;;;;6.20;5.60;;;;;;;;;;10492916;28;20024;-58
2023/06/19 20:55:25;;;;;;;7.18;6.38;;;;;;;;;;10497591;28;20032;-58
2023/06/19 21:00:26;;;;;;;9.77;6.65;;;;;;;;;;10496981;28;20395;-57
2023/06/19 21:05:27;;;;;;;8.93;6.00;;;;;;;;;;10497292;28;20099;-58
2023/06/19 21:10:28;;;;;;;9.88;6.38;;;;;;;;;;10495698;28;20033;-58
2023/06/19 21:15:28;;;;;;;9.63;6.50;;;;;;;;;;10496383;28;20028;-58
2023/06/19 21:20:29;;;;;;;7.97;6.65;;;;;;;;;;10495922;28;20078;-58
2023/06/19 21:25:29;;;;;;;7.18;6.32;;;;;;;;;;10493577;28;20032;-59
2023/06/19 21:30:31;;;;;;;7.28;6.60;;;;;;;;;;10494731;28;20052;-58
2023/06/19 21:35:32;;;;;;;8.57;6.30;;;;;;;;;;10495544;28;20032;-58
2023/06/19 21:40:33;;;;;;;18.15;7.80;;;;;;;;;;10490280;28;20492;-58
2023/06/19 21:45:33;;;;;;;18.25;8.93;;;;;;;;;;10466717;28;20036;-59
2023/06/19 21:50:34;;;;;;;27.67;9.35;;;;;;;;;;10465807;28;20118;-60
2023/06/19 21:55:35;;;;;;;21.33;9.07;;;;;;;;;;10467249;28;20033;-60
2023/06/19 22:00:35;;;;;;;14.80;8.20;;;;;;;;;;10470327;28;20036;-60
2023/06/19 22:05:36;;;;;;;15.95;8.07;;;;;;;;;;10493722;28;20027;-60
2023/06/19 22:10:37;;;;;;;19.85;8.40;;;;;;;;;;10493761;28;20031;-60
2023/06/19 22:15:37;;;;;;;14.93;7.90;;;;;;;;;;10494290;28;20028;-59
2023/06/19 22:20:38;;;;;;;14.95;8.43;;;;;;;;;;10493898;28;20031;-59
2023/06/19 22:25:38;;;;;;;15.05;7.78;;;;;;;;;;10493978;28;20036;-60
2023/06/19 22:30:39;;;;;;;14.15;8.25;;;;;;;;;;10493305;28;20511;-63
2023/06/19 22:35:40;;;;;;;19.33;8.18;;;;;;;;;;10492947;28;20040;-60
2023/06/19 22:40:40;;;;;;;12.95;7.05;;;;;;;;;;10492836;28;20033;-60
2023/06/19 22:45:41;;;;;;;17.92;8.00;;;;;;;;;;10492884;28;20369;-59
2023/06/19 22:50:41;;;;;;;15.43;7.82;;;;;;;;;;10491558;28;20040;-60
2023/06/19 22:55:42;;;;;;;10.23;7.20;;;;;;;;;;10492642;28;20032;-60
2023/06/19 23:00:43;;;;;;;13.70;7.18;;;;;;;;;;10484724;28;20017;-60
2023/06/19 23:05:44;;;;;;;17.50;7.53;;;;;;;;;;10478855;28;20025;-60
2023/06/19 23:10:44;;;;;;;12.80;7.25;;;;;;;;;;10481737;28;20063;-59
2023/06/19 23:15:45;;;;;;;10.30;6.82;;;;;;;;;;10490099;28;20023;-59
2023/06/19 23:20:45;;;;;;;13.90;7.43;;;;;;;;;;10490248;28;20510;-59
2023/06/19 23:25:50;;;;;;;12.32;7.35;;;;;;;;;;10489855;28;20377;-59
2023/06/19 23:30:53;;;;;;;12.90;6.63;;;;;;;;;;10490736;28;20033;-61
2023/06/19 23:35:56;;;;;;;8.77;6.75;;;;;;;;;;10490724;28;20038;-59
2023/06/19 23:40:56;;;;;;;11.93;7.07;;;;;;;;;;10490107;28;20152;-59
2023/06/19 23:45:57;;;;;;;12.52;6.60;;;;;;;;;;10489992;28;20560;-60
2023/06/19 23:50:57;;;;;;;12.40;6.90;;;;;;;;;;10489863;28;20039;-59
2023/06/19 23:55:58;;;;;;;9.48;6.57;;;;;;;;;;10490670;28;20025;-59
